Time;durP1;ratioP1;P1;durP2;ratioP2;P2;SDS_P1;SDS_P2;PMS_P1;PMS_P2;Temp;Humidity;BMP_temperature;BMP_pressure;BME280_temperature;BME280_humidity;BME280_pressure;Samples;Min_cycle;Max_cycle;Signal;HPM_P1;HPM_P2
2023/03/22 00:00:32;;;;;;;;;;;;;;;8.35;100;100902.1;;;;-74
2023/03/22 00:05:35;;;;;;;;;;;;;;;8.38;100;100897.2;;;;-73
2023/03/22 00:10:27;;;;;;;5.4;1;;;;;;;;;;;;;-72
2023/03/22 00:10:40;;;;;;;;;;;;;;;8.35;100;100881.7;;;;-73
2023/03/22 00:15:31;;;;;;;;;;;;;;;8.37;100;100880.3;;;;-74
2023/03/22 00:20:32;;;;;;;;;;;;;;;8.36;100;100875.9;;;;-72
2023/03/22 00:25:31;;;;;;;;;;;;;;;8.38;100;100877.9;;;;-73
2023/03/22 00:30:32;;;;;;;;;;;;;;;8.36;100;100872.1;;;;-75
2023/03/22 00:35:31;;;;;;;;;;;;;;;8.36;100;100866;;;;-74
2023/03/22 00:40:29;;;;;;;8.2;1;;;;;;;;;;;;;-73
2023/03/22 00:40:42;;;;;;;;;;;;;;;8.32;100;100851.5;;;;-74
2023/03/22 00:45:35;;;;;;;;;;;;;;;8.31;100;100855.5;;;;-74
2023/03/22 00:50:31;;;;;;;;;;;;;;;8.31;100;100845;;;;-73
2023/03/22 00:55:31;;;;;;;;;;;;;;;8.31;100;100848.3;;;;-74
2023/03/22 01:00:43;;;;;;;;;;;;;;;8.3;100;100847.7;;;;-74
2023/03/22 01:05:32;;;;;;;;;;;;;;;8.29;100;100844;;;;-73
2023/03/22 01:10:29;;;;;;;7.8;1.2;;;;;;;;;;;;;-74
2023/03/22 01:10:45;;;;;;;;;;;;;;;8.3;100;100828.4;;;;-73
2023/03/22 01:15:35;;;;;;;;;;;;;;;8.34;100;100830;;;;-72
2023/03/22 01:20:36;;;;;;;;;;;;;;;8.35;100;100820.1;;;;-74
2023/03/22 01:25:31;;;;;;;;;;;;;;;8.36;100;100807;;;;-74
2023/03/22 01:30:31;;;;;;;;;;;;;;;8.37;100;100804.6;;;;-73
2023/03/22 01:35:34;;;;;;;;;;;;;;;8.38;100;100796.2;;;;-73
2023/03/22 01:40:30;;;;;;;6.9;1.4;;;;;;;;;;;;;-73
2023/03/22 01:40:40;;;;;;;;;;;;;;;8.34;100;100773.7;;;;-73
2023/03/22 01:45:38;;;;;;;;;;;;;;;8.38;100;100783.3;;;;-73
2023/03/22 01:50:36;;;;;;;;;;;;;;;8.37;100;100768.3;;;;-74
2023/03/22 01:55:32;;;;;;;;;;;;;;;8.38;100;100759.4;;;;-73
2023/03/22 02:00:32;;;;;;;;;;;;;;;8.38;100;100755.5;;;;-73
2023/03/22 02:05:31;;;;;;;;;;;;;;;8.41;100;100752.6;;;;-74
2023/03/22 02:10:31;;;;;;;;;;;;;;;8.4;100;100739;;;;-73
2023/03/22 02:10:41;;;;;;;9.5;1.7;;;;;;;;;;;;;-73
2023/03/22 02:15:35;;;;;;;;;;;;;;;8.41;100;100729.5;;;;-74
2023/03/22 02:20:48;;;;;;;;;;;;;;;8.41;100;100718.3;;;;-73
2023/03/22 02:25:57;;;;;;;;;;;;;;;8.39;100;100711.4;;;;-74
2023/03/22 02:30:43;;;;;;;;;;;;;;;8.39;100;100702;;;;-73
2023/03/22 02:35:53;;;;;;;;;;;;;;;8.37;100;100698.3;;;;-73
2023/03/22 02:40:34;;;;;;;;;;;;;;;8.37;100;100692.7;;;;-74
2023/03/22 02:40:49;;;;;;;7.8;1.7;;;;;;;;;;;;;-74
2023/03/22 02:45:36;;;;;;;;;;;;;;;8.36;100;100681.3;;;;-73
2023/03/22 02:50:33;;;;;;;;;;;;;;;8.37;100;100671.9;;;;-73
2023/03/22 02:55:33;;;;;;;;;;;;;;;8.36;100;100675.5;;;;-73
2023/03/22 03:00:35;;;;;;;;;;;;;;;8.36;100;100675.9;;;;-73
2023/03/22 03:05:34;;;;;;;;;;;;;;;8.35;100;100674.9;;;;-72
2023/03/22 03:10:34;;;;;;;;;;;;;;;8.35;100;100668.4;;;;-74
2023/03/22 03:10:44;;;;;;;11.3;2;;;;;;;;;;;;;-74
2023/03/22 03:15:32;;;;;;;;;;;;;;;8.36;100;100665.4;;;;-73
2023/03/22 03:20:41;;;;;;;;;;;;;;;8.34;100;100657.1;;;;-74
2023/03/22 03:25:37;;;;;;;;;;;;;;;8.35;100;100648.2;;;;-72
2023/03/22 03:30:44;;;;;;;;;;;;;;;8.34;100;100649.2;;;;-73
2023/03/22 03:35:36;;;;;;;;;;;;;;;8.32;100;100642.6;;;;-73
2023/03/22 03:40:33;;;;;;;;;;;;;;;8.33;100;100641;;;;-74
2023/03/22 03:40:46;;;;;;;8.7;2.7;;;;;;;;;;;;;-74
2023/03/22 03:45:33;;;;;;;;;;;;;;;8.35;100;100639.8;;;;-73
2023/03/22 03:50:31;;;;;;;;;;;;;;;8.35;100;100635.9;;;;-73
2023/03/22 03:55:33;;;;;;;;;;;;;;;8.35;100;100642.1;;;;-73
2023/03/22 04:00:31;;;;;;;;;;;;;;;8.35;100;100635.2;;;;-73
2023/03/22 04:05:33;;;;;;;;;;;;;;;8.35;100;100644.6;;;;-74
2023/03/22 04:10:33;;;;;;;;;;;;;;;8.33;100;100639.3;;;;-73
2023/03/22 04:10:43;;;;;;;9.4;2.8;;;;;;;;;;;;;-73
2023/03/22 04:15:31;;;;;;;;;;;;;;;8.33;100;100630.3;;;;-73
2023/03/22 04:20:31;;;;;;;;;;;;;;;8.33;100;100629;;;;-74
2023/03/22 04:25:36;;;;;;;;;;;;;;;8.34;100;100625.4;;;;-73
2023/03/22 04:30:35;;;;;;;;;;;;;;;8.32;100;100624;;;;-73
2023/03/22 04:35:32;;;;;;;;;;;;;;;8.31;100;100617;;;;-74
2023/03/22 04:40:35;;;;;;;;;;;;;;;8.32;100;100609;;;;-71
2023/03/22 04:40:57;;;;;;;9.5;3.7;;;;;;;;;;;;;-71
2023/03/22 04:45:31;;;;;;;;;;;;;;;8.32;100;100605.2;;;;-73
2023/03/22 04:50:31;;;;;;;;;;;;;;;8.32;100;100603.3;;;;-73
2023/03/22 04:55:32;;;;;;;;;;;;;;;8.33;100;100602;;;;-74
2023/03/22 05:00:31;;;;;;;;;;;;;;;8.33;100;100590.1;;;;-73
2023/03/22 05:05:31;;;;;;;;;;;;;;;8.32;100;100586;;;;-74
2023/03/22 05:10:37;;;;;;;;;;;;;;;8.39;100;100582.3;;;;-74
2023/03/22 05:10:52;;;;;;;11.8;4.8;;;;;;;;;;;;;-74
2023/03/22 05:15:40;;;;;;;;;;;;;;;8.41;100;100569.8;;;;-74
2023/03/22 05:20:31;;;;;;;;;;;;;;;8.42;100;100571;;;;-74
2023/03/22 05:25:31;;;;;;;;;;;;;;;8.43;100;100562.4;;;;-74
2023/03/22 05:30:31;;;;;;;;;;;;;;;8.48;100;100563;;;;-74
2023/03/22 05:35:31;;;;;;;;;;;;;;;8.48;100;100559;;;;-75
2023/03/22 05:40:31;;;;;;;;;;;;;;;8.5;100;100546.6;;;;-73
2023/03/22 05:40:41;;;;;;;10.4;4.9;;;;;;;;;;;;;-73
2023/03/22 05:45:33;;;;;;;;;;;;;;;8.5;100;100545.9;;;;-74
2023/03/22 05:50:33;;;;;;;;;;;;;;;8.51;100;100542.9;;;;-73
2023/03/22 05:55:31;;;;;;;;;;;;;;;8.51;100;100539.1;;;;-73
2023/03/22 06:00:31;;;;;;;;;;;;;;;8.55;100;100541.1;;;;-73
2023/03/22 06:05:31;;;;;;;;;;;;;;;8.6;100;100541.1;;;;-73
2023/03/22 06:10:32;;;;;;;;;;;;;;;8.6;100;100547.1;;;;-75
2023/03/22 06:10:44;;;;;;;8.6;4;;;;;;;;;;;;;-75
2023/03/22 06:15:31;;;;;;;;;;;;;;;8.63;100;100542.5;;;;-74
2023/03/22 06:20:32;;;;;;;;;;;;;;;8.65;100;100541.2;;;;-74
2023/03/22 06:25:31;;;;;;;;;;;;;;;8.7;100;100538.8;;;;-73
2023/03/22 06:30:33;;;;;;;;;;;;;;;8.75;100;100541.3;;;;-74
2023/03/22 06:35:31;;;;;;;;;;;;;;;8.81;100;100543.4;;;;-74
2023/03/22 06:40:31;;;;;;;;;;;;;;;8.89;100;100533.7;;;;-73
2023/03/22 06:40:43;;;;;;;10.8;3.1;;;;;;;;;;;;;-73
2023/03/22 06:45:34;;;;;;;;;;;;;;;8.96;100;100531.2;;;;-74
2023/03/22 06:50:36;;;;;;;;;;;;;;;8.97;100;100537.6;;;;-73
2023/03/22 06:55:33;;;;;;;;;;;;;;;9;100;100531.5;;;;-75
2023/03/22 07:00:33;;;;;;;;;;;;;;;9.04;100;100535.2;;;;-74
2023/03/22 07:05:36;;;;;;;;;;;;;;;9.07;100;100536.2;;;;-73
2023/03/22 07:10:33;;;;;;;;;;;;;;;9.11;100;100526.4;;;;-74
2023/03/22 07:10:45;;;;;;;8.4;2.5;;;;;;;;;;;;;-74
2023/03/22 07:15:31;;;;;;;;;;;;;;;9.21;99.74805;100533.6;;;;-74
2023/03/22 07:20:35;;;;;;;;;;;;;;;9.29;99.51465;100523.9;;;;-74
2023/03/22 07:25:31;;;;;;;;;;;;;;;9.36;99.33203;100508.6;;;;-73
2023/03/22 07:30:36;;;;;;;;;;;;;;;9.39;98.96484;100516.6;;;;-74
2023/03/22 07:35:34;;;;;;;;;;;;;;;9.41;98.69531;100518.8;;;;-74
2023/03/22 07:40:31;;;;;;;;;;;;;;;9.49;98.72461;100508.6;;;;-73
2023/03/22 07:40:41;;;;;;;9.1;2.5;;;;;;;;;;;;;-75
2023/03/22 07:45:31;;;;;;;;;;;;;;;9.56;98.36719;100517.4;;;;-74
2023/03/22 07:50:31;;;;;;;;;;;;;;;9.63;98.3291;100516.1;;;;-74
2023/03/22 07:55:31;;;;;;;;;;;;;;;9.66;98.15918;100514.4;;;;-73
2023/03/22 08:00:33;;;;;;;;;;;;;;;9.69;98.01172;100526.4;;;;-73
2023/03/22 08:05:31;;;;;;;;;;;;;;;9.75;98.04785;100518.1;;;;-73
2023/03/22 08:10:40;;;;;;;;;;;;;;;9.73;98.51563;100526.1;;;;-74
2023/03/22 08:10:51;;;;;;;11.2;2.9;;;;;;;;;;;;;-74
2023/03/22 08:15:31;;;;;;;;;;;;;;;9.75;98.59668;100517;;;;-74
2023/03/22 08:20:33;;;;;;;;;;;;;;;9.71;98.86133;100517.5;;;;-74
2023/03/22 08:25:32;;;;;;;;;;;;;;;9.71;98.82813;100509.1;;;;-73
2023/03/22 08:30:40;;;;;;;;;;;;;;;9.7;99.16699;100506.9;;;;-74
2023/03/22 08:35:31;;;;;;;;;;;;;;;9.69;99.35156;100514.5;;;;-73
2023/03/22 08:40:35;;;;;;;;;;;;;;;9.62;100;100515.5;;;;-74
2023/03/22 08:40:48;;;;;;;7.7;2.6;;;;;;;;;;;;;-74
2023/03/22 08:45:31;;;;;;;;;;;;;;;9.6;100;100516;;;;-73
2023/03/22 08:50:33;;;;;;;;;;;;;;;9.56;100;100513.9;;;;-74
2023/03/22 08:55:36;;;;;;;;;;;;;;;9.55;100;100503.6;;;;-73
2023/03/22 09:00:31;;;;;;;;;;;;;;;9.56;100;100505.5;;;;-74
2023/03/22 09:05:31;;;;;;;;;;;;;;;9.53;100;100503.5;;;;-73
2023/03/22 09:10:37;;;;;;;;;;;;;;;9.52;100;100501.5;;;;-73
2023/03/22 09:10:46;;;;;;;9.8;2.6;;;;;;;;;;;;;-73
2023/03/22 09:15:31;;;;;;;;;;;;;;;9.52;100;100508.4;;;;-76
2023/03/22 09:20:33;;;;;;;;;;;;;;;9.51;100;100506.1;;;;-73
2023/03/22 09:25:34;;;;;;;;;;;;;;;9.44;100;100498.8;;;;-74
2023/03/22 09:30:31;;;;;;;;;;;;;;;9.47;100;100506.1;;;;-75
2023/03/22 09:35:31;;;;;;;;;;;;;;;9.48;100;100501.1;;;;-74
2023/03/22 09:40:32;;;;;;;;;;;;;;;9.47;100;100512.3;;;;-75
2023/03/22 09:40:52;;;;;;;8.6;2.6;;;;;;;;;;;;;-74
2023/03/22 09:45:36;;;;;;;;;;;;;;;9.47;100;100511.1;;;;-74
2023/03/22 09:50:32;;;;;;;;;;;;;;;9.48;100;100507;;;;-74
2023/03/22 09:55:37;;;;;;;;;;;;;;;9.48;100;100507.7;;;;-75
2023/03/22 10:00:37;;;;;;;;;;;;;;;9.5;100;100515.2;;;;-75
2023/03/22 10:05:39;;;;;;;;;;;;;;;9.49;100;100508.8;;;;-74
2023/03/22 10:10:33;;;;;;;;;;;;;;;9.48;100;100515.6;;;;-76
2023/03/22 10:10:48;;;;;;;9.7;3;;;;;;;;;;;;;-74
2023/03/22 10:15:34;;;;;;;;;;;;;;;9.49;100;100516.2;;;;-75
2023/03/22 10:20:37;;;;;;;;;;;;;;;9.52;100;100518.8;;;;-75
2023/03/22 10:25:35;;;;;;;;;;;;;;;9.53;100;100511.9;;;;-74
2023/03/22 10:30:33;;;;;;;;;;;;;;;9.57;100;100511.9;;;;-74
2023/03/22 10:35:31;;;;;;;;;;;;;;;9.6;100;100492.8;;;;-74
2023/03/22 10:40:35;;;;;;;;;;;;;;;9.68;100;100491.8;;;;-73
2023/03/22 10:40:52;;;;;;;8.5;3.1;;;;;;;;;;;;;-74
2023/03/22 10:45:34;;;;;;;;;;;;;;;9.76;100;100494.5;;;;-74
2023/03/22 10:50:35;;;;;;;;;;;;;;;9.79;100;100493.4;;;;-73
2023/03/22 10:55:31;;;;;;;;;;;;;;;9.9;100;100482.6;;;;-74
2023/03/22 11:00:31;;;;;;;;;;;;;;;10.01;100;100495.3;;;;-76
2023/03/22 11:05:34;;;;;;;;;;;;;;;10.05;100;100474;;;;-74
2023/03/22 11:10:33;;;;;;;;;;;;;;;10.21;100;100493.6;;;;-75
2023/03/22 11:10:53;;;;;;;11.3;3.7;;;;;;;;;;;;;-74
2023/03/22 11:15:34;;;;;;;;;;;;;;;10.26;100;100504.9;;;;-74
2023/03/22 11:20:32;;;;;;;;;;;;;;;10.27;100;100522.8;;;;-73
2023/03/22 11:25:37;;;;;;;;;;;;;;;10.26;100;100536.5;;;;-72
2023/03/22 11:30:31;;;;;;;;;;;;;;;10.21;100;100540.9;;;;-72
2023/03/22 11:35:32;;;;;;;;;;;;;;;10.13;100;100540.5;;;;-76
2023/03/22 11:40:35;;;;;;;;;;;;;;;10.15;100;100538.3;;;;-73
2023/03/22 12:01:54;;;;;;;;;;;;;;;10.05;100;100533.4;;;;-74
2023/03/22 12:06:51;;;;;;;;;;;;;;;10.07;100;100526.3;;;;-74
2023/03/22 12:10:55;;;;;;;10.7;3.4;;;;;;;;;;;;;-73
2023/03/22 12:11:54;;;;;;;;;;;;;;;10.06;100;100529.2;;;;-74
2023/03/22 12:16:54;;;;;;;;;;;;;;;10.09;100;100520.7;;;;-75
2023/03/22 12:21:51;;;;;;;;;;;;;;;10.1;100;100523.5;;;;-74
2023/03/22 12:26:53;;;;;;;;;;;;;;;10.1;100;100528.9;;;;-73
2023/03/22 12:31:58;;;;;;;;;;;;;;;10.14;100;100518.1;;;;-73
2023/03/22 12:36:53;;;;;;;;;;;;;;;10.21;100;100514.8;;;;-74
2023/03/22 12:40:55;;;;;;;8.3;3.5;;;;;;;;;;;;;-75
2023/03/22 12:41:51;;;;;;;;;;;;;;;10.26;100;100502;;;;-74
2023/03/22 12:47:05;;;;;;;;;;;;;;;10.26;100;100508.1;;;;-73
2023/03/22 12:51:51;;;;;;;;;;;;;;;10.29;100;100513.3;;;;-74
2023/03/22 12:56:51;;;;;;;;;;;;;;;10.29;100;100511.2;;;;-74
2023/03/22 13:01:54;;;;;;;;;;;;;;;10.31;100;100516.5;;;;-74
2023/03/22 13:07:10;;;;;;;;;;;;;;;10.31;100;100513;;;;-73
2023/03/22 13:11:14;;;;;;;7.6;3.2;;;;;;;;;;;;;-73
2023/03/22 13:11:53;;;;;;;;;;;;;;;10.35;100;100515.1;;;;-73
2023/03/22 13:17:01;;;;;;;;;;;;;;;10.32;100;100511.4;;;;-75
2023/03/22 13:21:53;;;;;;;;;;;;;;;10.34;100;100513;;;;-75
2023/03/22 13:26:54;;;;;;;;;;;;;;;10.38;100;100521.5;;;;-74
2023/03/22 13:31:57;;;;;;;;;;;;;;;10.42;100;100506.4;;;;-74
2023/03/22 13:37:00;;;;;;;;;;;;;;;10.44;100;100504.2;;;;-74
2023/03/22 13:41:12;;;;;;;;;;;;;;;;;;;;;
2023/03/22 13:41:53;;;;;;;;;;;;;;;10.5;100;100504.8;;;;-73
2023/03/22 13:46:52;;;;;;;;;;;;;;;10.49;100;100500;;;;-74
2023/03/22 13:51:52;;;;;;;;;;;;;;;10.58;100;100495.5;;;;-73
2023/03/22 13:56:59;;;;;;;;;;;;;;;10.6;100;100492.4;;;;-73
2023/03/22 14:01:53;;;;;;;;;;;;;;;10.62;100;100493.6;;;;-74
2023/03/22 14:06:54;;;;;;;;;;;;;;;10.64;100;100473.2;;;;-74
2023/03/22 14:10:59;;;;;;;8.5;3.6;;;;;;;;;;;;;-73
2023/03/22 14:11:52;;;;;;;;;;;;;;;10.7;100;100467.4;;;;-73
2023/03/22 14:16:51;;;;;;;;;;;;;;;10.73;100;100459.7;;;;-74
2023/03/22 14:21:51;;;;;;;;;;;;;;;10.78;100;100460.1;;;;-74
2023/03/22 14:26:52;;;;;;;;;;;;;;;10.78;100;100464.1;;;;-73
2023/03/22 14:32:00;;;;;;;;;;;;;;;10.76;100;100454.5;;;;-74
2023/03/22 14:36:54;;;;;;;;;;;;;;;10.77;100;100456.2;;;;-74
2023/03/22 14:41:07;;;;;;;7.8;4;;;;;;;;;;;;;-74
2023/03/22 14:42:06;;;;;;;;;;;;;;;10.75;100;100461.6;;;;-74
2023/03/22 14:46:49;;;;;;;;;;;;;;;10.76;100;100459.2;;;;-74
2023/03/22 14:51:52;;;;;;;;;;;;;;;10.76;100;100451.8;;;;-75
2023/03/22 14:56:52;;;;;;;;;;;;;;;10.77;100;100461.9;;;;-74
2023/03/22 15:01:55;;;;;;;;;;;;;;;10.77;100;100466.9;;;;-74
2023/03/22 15:06:54;;;;;;;;;;;;;;;10.75;100;100461.8;;;;-74
2023/03/22 15:11:01;;;;;;;11.3;5.2;;;;;;;;;;;;;-74
2023/03/22 15:11:53;;;;;;;;;;;;;;;10.74;100;100447.4;;;;-74
2023/03/22 15:16:51;;;;;;;;;;;;;;;10.76;100;100455.5;;;;-75
2023/03/22 15:22:03;;;;;;;;;;;;;;;10.77;100;100439;;;;-73
2023/03/22 15:26:51;;;;;;;;;;;;;;;10.76;100;100442.5;;;;-73
2023/03/22 15:31:50;;;;;;;;;;;;;;;10.76;100;100445.5;;;;-75
2023/03/22 15:41:00;;;;;;;9.2;4.8;;;;;;;;;;;;;-74
2023/03/22 15:41:59;;;;;;;;;;;;;;;10.74;100;100440.8;;;;-75
2023/03/22 15:47:13;;;;;;;;;;;;;;;10.75;100;100443.9;;;;-73
2023/03/22 15:51:50;;;;;;;;;;;;;;;10.72;100;100438.1;;;;-74
2023/03/22 15:56:52;;;;;;;;;;;;;;;10.71;100;100425.1;;;;-75
2023/03/22 16:01:50;;;;;;;;;;;;;;;10.69;100;100405.8;;;;-74
2023/03/22 16:06:50;;;;;;;;;;;;;;;10.69;100;100406.6;;;;-74
2023/03/22 16:11:04;;;;;;;9.3;4.6;;;;;;;;;;;;;-73
2023/03/22 16:11:55;;;;;;;;;;;;;;;10.68;100;100398.4;;;;-74
2023/03/22 16:17:00;;;;;;;;;;;;;;;10.66;100;100393.6;;;;-73
2023/03/22 16:21:50;;;;;;;;;;;;;;;10.66;100;100388.9;;;;-74
2023/03/22 16:26:54;;;;;;;;;;;;;;;10.65;100;100391.5;;;;-73
2023/03/22 16:31:50;;;;;;;;;;;;;;;10.65;100;100391.8;;;;-74
2023/03/22 16:36:53;;;;;;;;;;;;;;;10.63;100;100385.4;;;;-74
2023/03/22 16:41:02;;;;;;;6.7;3.8;;;;;;;;;;;;;-73
2023/03/22 16:41:50;;;;;;;;;;;;;;;10.6;100;100384.8;;;;-75
2023/03/22 16:46:50;;;;;;;;;;;;;;;10.61;100;100384.7;;;;-74
2023/03/22 16:51:50;;;;;;;;;;;;;;;10.6;100;100392.5;;;;-74
2023/03/22 16:56:51;;;;;;;;;;;;;;;10.61;100;100387;;;;-73
2023/03/22 17:01:50;;;;;;;;;;;;;;;10.58;100;100388.6;;;;-74
2023/03/22 17:06:51;;;;;;;;;;;;;;;10.58;100;100402.7;;;;-73
2023/03/22 17:11:04;;;;;;;5.8;3.8;;;;;;;;;;;;;-73
2023/03/22 17:11:52;;;;;;;;;;;;;;;10.56;100;100414.3;;;;-73
2023/03/22 17:16:50;;;;;;;;;;;;;;;10.56;100;100416.5;;;;-75
2023/03/22 17:21:53;;;;;;;;;;;;;;;10.52;100;100423.4;;;;-74
2023/03/22 17:26:59;;;;;;;;;;;;;;;10.5;100;100404.3;;;;-74
2023/03/22 17:31:50;;;;;;;;;;;;;;;10.48;100;100402.4;;;;-75
2023/03/22 17:36:49;;;;;;;;;;;;;;;10.47;100;100413.7;;;;-74
2023/03/22 17:41:06;;;;;;;7.6;4.1;;;;;;;;;;;;;-73
2023/03/22 17:41:51;;;;;;;;;;;;;;;10.45;100;100406.7;;;;-73
2023/03/22 17:46:50;;;;;;;;;;;;;;;10.46;100;100409.4;;;;-74
2023/03/22 17:51:58;;;;;;;;;;;;;;;10.45;100;100415.5;;;;-73
2023/03/22 17:56:51;;;;;;;;;;;;;;;10.43;100;100406.7;;;;-74
2023/03/22 18:01:51;;;;;;;;;;;;;;;10.43;100;100411.9;;;;-73
2023/03/22 18:06:52;;;;;;;;;;;;;;;10.43;100;100403.8;;;;-74
2023/03/22 18:11:10;;;;;;;7.3;4.9;;;;;;;;;;;;;-74
2023/03/22 18:11:50;;;;;;;;;;;;;;;10.41;100;100381.8;;;;-75
2023/03/22 18:16:50;;;;;;;;;;;;;;;10.41;100;100365.4;;;;-74
2023/03/22 18:21:55;;;;;;;;;;;;;;;10.42;100;100366.1;;;;-74
2023/03/22 18:26:57;;;;;;;;;;;;;;;10.41;100;100370;;;;-75
2023/03/22 18:31:54;;;;;;;;;;;;;;;10.41;100;100366.9;;;;-73
2023/03/22 18:36:51;;;;;;;;;;;;;;;10.41;100;100352.6;;;;-74
2023/03/22 18:41:12;;;;;;;8.3;5.3;;;;;;;;;;;;;-75
2023/03/22 18:41:52;;;;;;;;;;;;;;;10.42;100;100380.8;;;;-74
2023/03/22 18:46:50;;;;;;;;;;;;;;;10.41;100;100403;;;;-74
2023/03/22 18:51:55;;;;;;;;;;;;;;;10.39;100;100400.7;;;;-73
2023/03/22 18:56:49;;;;;;;;;;;;;;;10.38;100;100387.5;;;;-73
2023/03/22 19:01:53;;;;;;;;;;;;;;;10.37;100;100362.8;;;;-74
2023/03/22 19:06:56;;;;;;;;;;;;;;;10.37;100;100366.4;;;;-74
2023/03/22 19:11:10;;;;;;;10.7;6.5;;;;;;;;;;;;;-73
2023/03/22 19:11:52;;;;;;;;;;;;;;;10.35;100;100357.4;;;;-76
2023/03/22 19:16:50;;;;;;;;;;;;;;;10.34;100;100326.1;;;;-75
2023/03/22 19:21:57;;;;;;;;;;;;;;;10.34;100;100335.1;;;;-74
2023/03/22 19:26:49;;;;;;;;;;;;;;;10.33;100;100334.3;;;;-74
2023/03/22 19:31:49;;;;;;;;;;;;;;;10.34;100;100339.2;;;;-75
2023/03/22 19:36:52;;;;;;;;;;;;;;;10.32;100;100331.2;;;;-74
2023/03/22 19:41:12;;;;;;;11.7;7.5;;;;;;;;;;;;;-74
2023/03/22 19:41:49;;;;;;;;;;;;;;;10.31;100;100334.6;;;;-74
2023/03/22 19:46:55;;;;;;;;;;;;;;;10.32;100;100330.2;;;;-75
2023/03/22 19:51:50;;;;;;;;;;;;;;;10.31;100;100326.9;;;;-74
2023/03/22 19:56:59;;;;;;;;;;;;;;;10.32;100;100336.9;;;;-75
2023/03/22 20:01:50;;;;;;;;;;;;;;;10.31;100;100328.8;;;;-74
2023/03/22 20:06:51;;;;;;;;;;;;;;;10.3;100;100329.3;;;;-75
2023/03/22 20:11:12;;;;;;;13.9;7.6;;;;;;;;;;;;;-74
2023/03/22 20:11:49;;;;;;;;;;;;;;;10.29;100;100323.2;;;;-75
2023/03/22 20:16:50;;;;;;;;;;;;;;;10.29;100;100322.1;;;;-75
2023/03/22 20:21:50;;;;;;;;;;;;;;;10.28;100;100323.1;;;;-74
2023/03/22 20:26:50;;;;;;;;;;;;;;;10.28;100;100296.9;;;;-76
2023/03/22 20:31:49;;;;;;;;;;;;;;;10.25;100;100312.7;;;;-75
2023/03/22 20:36:51;;;;;;;;;;;;;;;10.22;100;100313.4;;;;-76
2023/03/22 20:41:15;;;;;;;13.7;8;;;;;;;;;;;;;-77
2023/03/22 20:41:53;;;;;;;;;;;;;;;10.21;100;100299.5;;;;-76
2023/03/22 20:46:49;;;;;;;;;;;;;;;10.19;100;100279.3;;;;-76
2023/03/22 20:51:49;;;;;;;;;;;;;;;10.19;100;100275.4;;;;-75
2023/03/22 20:56:53;;;;;;;;;;;;;;;10.2;100;100257.3;;;;-76
2023/03/22 21:01:53;;;;;;;;;;;;;;;10.18;100;100249.1;;;;-76
2023/03/22 21:06:49;;;;;;;;;;;;;;;10.18;100;100246.7;;;;-76
2023/03/22 21:11:22;;;;;;;16.4;9;;;;;;;;;;;;;-76
2023/03/22 21:11:51;;;;;;;;;;;;;;;10.17;100;100235.8;;;;-76
2023/03/22 21:16:49;;;;;;;;;;;;;;;10.17;100;100230.6;;;;-76
2023/03/22 21:21:50;;;;;;;;;;;;;;;10.17;100;100236.1;;;;-76
2023/03/22 21:26:52;;;;;;;;;;;;;;;10.16;100;100229.2;;;;-77
2023/03/22 21:31:54;;;;;;;;;;;;;;;10.16;100;100224.1;;;;-77
2023/03/22 21:36:51;;;;;;;;;;;;;;;10.15;100;100232.2;;;;-76
2023/03/22 21:41:19;;;;;;;15.9;8.1;;;;;;;;;;;;;-76
2023/03/22 21:41:49;;;;;;;;;;;;;;;10.14;100;100233;;;;-77
2023/03/22 21:46:50;;;;;;;;;;;;;;;10.15;100;100250.9;;;;-76
2023/03/22 21:51:49;;;;;;;;;;;;;;;10.14;100;100250.9;;;;-76
2023/03/22 21:56:50;;;;;;;;;;;;;;;10.14;100;100230.5;;;;-77
2023/03/22 22:01:49;;;;;;;;;;;;;;;10.12;100;100217.5;;;;-75
2023/03/22 22:06:50;;;;;;;;;;;;;;;10.1;100;100208.8;;;;-76
2023/03/22 22:11:20;;;;;;;11.2;6.3;;;;;;;;;;;;;-77
2023/03/22 22:11:50;;;;;;;;;;;;;;;10.08;100;100210.7;;;;-77
2023/03/22 22:16:53;;;;;;;;;;;;;;;10.07;100;100207.6;;;;-76
2023/03/22 22:21:52;;;;;;;;;;;;;;;10.06;100;100200.8;;;;-77
2023/03/22 22:26:50;;;;;;;;;;;;;;;10.08;100;100187.8;;;;-77
2023/03/22 22:31:50;;;;;;;;;;;;;;;10.08;100;100165.2;;;;-77
2023/03/22 22:36:52;;;;;;;;;;;;;;;10.1;100;100173.5;;;;-76
2023/03/22 22:41:20;;;;;;;12.3;6.6;;;;;;;;;;;;;-76
2023/03/22 22:41:52;;;;;;;;;;;;;;;10.13;100;100174.2;;;;-77
2023/03/22 22:46:49;;;;;;;;;;;;;;;10.15;100;100166.8;;;;-77
2023/03/22 22:51:50;;;;;;;;;;;;;;;10.14;100;100178.5;;;;-76
2023/03/22 22:56:49;;;;;;;;;;;;;;;10.15;100;100168.2;;;;-75
2023/03/22 23:01:50;;;;;;;;;;;;;;;10.16;100;100160.7;;;;-77
2023/03/22 23:06:51;;;;;;;;;;;;;;;10.17;100;100157.6;;;;-76
2023/03/22 23:11:22;;;;;;;15.7;6.7;;;;;;;;;;;;;-75
2023/03/22 23:11:52;;;;;;;;;;;;;;;10.17;100;100165.7;;;;-75
2023/03/22 23:16:50;;;;;;;;;;;;;;;10.18;100;100158.4;;;;-77
2023/03/22 23:21:52;;;;;;;;;;;;;;;10.17;100;100147.6;;;;-76
2023/03/22 23:26:55;;;;;;;;;;;;;;;10.16;100;100148.3;;;;-76
2023/03/22 23:31:49;;;;;;;;;;;;;;;10.16;100;100142.2;;;;-76
2023/03/22 23:36:50;;;;;;;;;;;;;;;10.17;100;100129.6;;;;-76
2023/03/22 23:41:22;;;;;;;10.9;5.2;;;;;;;;;;;;;-75
2023/03/22 23:41:50;;;;;;;;;;;;;;;10.18;100;100126.8;;;;-75
2023/03/22 23:46:49;;;;;;;;;;;;;;;10.18;100;100118.4;;;;-77
2023/03/22 23:51:50;;;;;;;;;;;;;;;10.18;100;100127.8;;;;-76
2023/03/22 23:56:53;;;;;;;;;;;;;;;10.18;100;100126.6;;;;-75
